sensor_id;sensor_type;location;lat;lon;timestamp;pressure;altitude;pressure_sealevel;temperature;humidity
12182;BME280;6154;51.550;12.138;2022-08-03T00:02:16;100555.53;;;22.18;49.29
12182;BME280;6154;51.550;12.138;2022-08-03T00:04:45;100557.56;;;22.16;49.29
12182;BME280;6154;51.550;12.138;2022-08-03T00:07:15;100564.06;;;22.14;49.17
12182;BME280;6154;51.550;12.138;2022-08-03T00:09:43;100552.09;;;22.08;49.74
12182;BME280;6154;51.550;12.138;2022-08-03T00:12:11;100551.38;;;22.06;49.84
12182;BME280;6154;51.550;12.138;2022-08-03T00:14:40;100545.25;;;22.04;49.58
12182;BME280;6154;51.550;12.138;2022-08-03T00:17:08;100549.13;;;22.01;49.91
12182;BME280;6154;51.550;12.138;2022-08-03T00:19:36;100550.44;;;21.97;50.27
12182;BME280;6154;51.550;12.138;2022-08-03T00:22:04;100548.91;;;21.95;50.20
12182;BME280;6154;51.550;12.138;2022-08-03T00:24:33;100551.28;;;21.98;49.67
12182;BME280;6154;51.550;12.138;2022-08-03T00:27:02;100551.97;;;22.00;49.48
12182;BME280;6154;51.550;12.138;2022-08-03T00:29:30;100549.97;;;22.02;49.53
12182;BME280;6154;51.550;12.138;2022-08-03T00:31:58;100547.94;;;22.04;49.56
12182;BME280;6154;51.550;12.138;2022-08-03T00:34:26;100546.25;;;22.03;49.46
12182;BME280;6154;51.550;12.138;2022-08-03T00:37:15;100554.50;;;22.01;49.50
12182;BME280;6154;51.550;12.138;2022-08-03T00:39:45;100548.44;;;21.99;49.60
12182;BME280;6154;51.550;12.138;2022-08-03T00:42:14;100548.03;;;21.94;49.78
12182;BME280;6154;51.550;12.138;2022-08-03T00:44:43;100550.88;;;21.93;49.90
12182;BME280;6154;51.550;12.138;2022-08-03T00:47:12;100548.84;;;21.87;50.32
12182;BME280;6154;51.550;12.138;2022-08-03T00:49:40;100545.59;;;21.83;50.38
12182;BME280;6154;51.550;12.138;2022-08-03T00:52:08;100549.13;;;21.84;50.10
12182;BME280;6154;51.550;12.138;2022-08-03T00:54:37;100542.34;;;21.79;50.75
12182;BME280;6154;51.550;12.138;2022-08-03T00:57:07;100548.06;;;21.76;50.69
12182;BME280;6154;51.550;12.138;2022-08-03T00:59:35;100544.66;;;21.74;50.73
12182;BME280;6154;51.550;12.138;2022-08-03T01:02:05;100541.09;;;21.74;50.32
12182;BME280;6154;51.550;12.138;2022-08-03T01:04:33;100542.97;;;21.73;50.48
12182;BME280;6154;51.550;12.138;2022-08-03T01:07:05;100543.97;;;21.72;50.37
12182;BME280;6154;51.550;12.138;2022-08-03T01:09:47;100547.66;;;21.71;51.12
12182;BME280;6154;51.550;12.138;2022-08-03T01:12:28;100541.59;;;21.69;52.32
12182;BME280;6154;51.550;12.138;2022-08-03T01:15:02;100540.44;;;21.72;52.13
12182;BME280;6154;51.550;12.138;2022-08-03T01:17:39;100539.50;;;21.63;50.91
12182;BME280;6154;51.550;12.138;2022-08-03T01:20:13;100535.41;;;21.59;51.35
12182;BME280;6154;51.550;12.138;2022-08-03T01:22:59;100532.03;;;21.57;50.79
12182;BME280;6154;51.550;12.138;2022-08-03T01:25:37;100531.63;;;21.52;52.72
12182;BME280;6154;51.550;12.138;2022-08-03T01:28:21;100530.94;;;21.50;51.11
12182;BME280;6154;51.550;12.138;2022-08-03T01:30:56;100525.03;;;21.46;52.92
12182;BME280;6154;51.550;12.138;2022-08-03T01:33:32;100528.00;;;21.43;51.01
12182;BME280;6154;51.550;12.138;2022-08-03T01:36:04;100532.53;;;21.43;51.47
12182;BME280;6154;51.550;12.138;2022-08-03T01:38:37;100532.53;;;21.43;50.66
12182;BME280;6154;51.550;12.138;2022-08-03T01:41:11;100533.69;;;21.40;50.91
12182;BME280;6154;51.550;12.138;2022-08-03T01:43:45;100534.84;;;21.38;51.65
12182;BME280;6154;51.550;12.138;2022-08-03T01:46:37;100533.31;;;21.35;50.98
12182;BME280;6154;51.550;12.138;2022-08-03T01:49:15;100535.19;;;21.35;51.25
12182;BME280;6154;51.550;12.138;2022-08-03T01:51:46;100535.28;;;21.33;50.85
12182;BME280;6154;51.550;12.138;2022-08-03T01:54:31;100538.72;;;21.26;51.93
12182;BME280;6154;51.550;12.138;2022-08-03T01:57:03;100538.84;;;21.24;50.89
12182;BME280;6154;51.550;12.138;2022-08-03T01:59:33;100538.72;;;21.26;51.06
12182;BME280;6154;51.550;12.138;2022-08-03T02:02:04;100532.37;;;21.27;51.10
12182;BME280;6154;51.550;12.138;2022-08-03T02:04:54;100530.53;;;21.27;50.95
12182;BME280;6154;51.550;12.138;2022-08-03T02:07:24;100531.38;;;21.28;50.54
12182;BME280;6154;51.550;12.138;2022-08-03T02:09:54;100535.75;;;21.29;50.49
12182;BME280;6154;51.550;12.138;2022-08-03T02:12:24;100532.06;;;21.30;50.49
12182;BME280;6154;51.550;12.138;2022-08-03T02:14:54;100534.91;;;21.28;50.79
12182;BME280;6154;51.550;12.138;2022-08-03T02:17:27;100539.63;;;21.26;50.65
12182;BME280;6154;51.550;12.138;2022-08-03T02:20:07;100530.94;;;21.22;51.58
12182;BME280;6154;51.550;12.138;2022-08-03T02:22:38;100532.09;;;21.20;51.24
12182;BME280;6154;51.550;12.138;2022-08-03T02:25:08;100536.78;;;21.18;51.37
12182;BME280;6154;51.550;12.138;2022-08-03T02:27:38;100524.47;;;21.15;51.49
12182;BME280;6154;51.550;12.138;2022-08-03T02:30:11;100533.53;;;21.14;51.20
12182;BME280;6154;51.550;12.138;2022-08-03T02:32:43;100525.59;;;21.13;51.40
12182;BME280;6154;51.550;12.138;2022-08-03T02:35:15;100529.44;;;21.10;51.60
12182;BME280;6154;51.550;12.138;2022-08-03T02:37:47;100533.44;;;21.06;51.48
12182;BME280;6154;51.550;12.138;2022-08-03T02:40:19;100534.44;;;21.05;51.89
12182;BME280;6154;51.550;12.138;2022-08-03T02:42:51;100526.50;;;21.04;51.80
12182;BME280;6154;51.550;12.138;2022-08-03T02:45:21;100526.81;;;21.01;51.95
12182;BME280;6154;51.550;12.138;2022-08-03T02:47:55;100523.97;;;21.02;51.66
12182;BME280;6154;51.550;12.138;2022-08-03T02:50:25;100535.56;;;21.03;52.79
12182;BME280;6154;51.550;12.138;2022-08-03T02:52:54;100522.28;;;21.01;52.00
12182;BME280;6154;51.550;12.138;2022-08-03T02:55:25;100524.28;;;20.99;52.15
12182;BME280;6154;51.550;12.138;2022-08-03T02:57:54;100523.44;;;20.99;52.18
12182;BME280;6154;51.550;12.138;2022-08-03T03:00:28;100533.09;;;20.91;52.73
12182;BME280;6154;51.550;12.138;2022-08-03T03:03:00;100529.84;;;20.88;52.26
12182;BME280;6154;51.550;12.138;2022-08-03T03:05:29;100528.84;;;20.89;52.93
12182;BME280;6154;51.550;12.138;2022-08-03T03:08:19;100525.47;;;20.87;53.63
12182;BME280;6154;51.550;12.138;2022-08-03T03:10:54;100522.34;;;20.82;54.14
12182;BME280;6154;51.550;12.138;2022-08-03T03:13:23;100529.75;;;20.80;53.79
12182;BME280;6154;51.550;12.138;2022-08-03T03:15:53;100531.72;;;20.78;54.46
12182;BME280;6154;51.550;12.138;2022-08-03T03:18:26;100523.34;;;20.81;55.39
12182;BME280;6154;51.550;12.138;2022-08-03T03:20:55;100529.31;;;20.84;55.75
12182;BME280;6154;51.550;12.138;2022-08-03T03:23:25;100528.16;;;20.87;54.56
12182;BME280;6154;51.550;12.138;2022-08-03T03:25:55;100525.16;;;20.90;54.45
12182;BME280;6154;51.550;12.138;2022-08-03T03:28:24;100535.63;;;20.93;54.02
12182;BME280;6154;51.550;12.138;2022-08-03T03:30:53;100529.38;;;20.92;54.62
12182;BME280;6154;51.550;12.138;2022-08-03T03:33:21;100519.47;;;20.93;54.48
12182;BME280;6154;51.550;12.138;2022-08-03T03:35:51;100526.69;;;20.92;54.11
12182;BME280;6154;51.550;12.138;2022-08-03T03:38:20;100529.25;;;20.94;54.20
12182;BME280;6154;51.550;12.138;2022-08-03T03:40:48;100526.53;;;20.94;54.11
12182;BME280;6154;51.550;12.138;2022-08-03T03:43:16;100530.25;;;20.93;54.19
12182;BME280;6154;51.550;12.138;2022-08-03T03:45:46;100526.53;;;20.94;54.07
12182;BME280;6154;51.550;12.138;2022-08-03T03:48:14;100515.09;;;20.92;54.01
12182;BME280;6154;51.550;12.138;2022-08-03T03:50:43;100524.00;;;20.92;54.22
12182;BME280;6154;51.550;12.138;2022-08-03T03:53:13;100526.84;;;20.91;54.27
12182;BME280;6154;51.550;12.138;2022-08-03T03:55:42;100520.78;;;20.89;53.93
12182;BME280;6154;51.550;12.138;2022-08-03T03:58:29;100524.63;;;20.86;54.10
12182;BME280;6154;51.550;12.138;2022-08-03T04:00:58;100530.16;;;20.85;53.94
12182;BME280;6154;51.550;12.138;2022-08-03T04:03:26;100525.75;;;20.84;53.63
12182;BME280;6154;51.550;12.138;2022-08-03T04:05:54;100529.16;;;20.86;53.90
12182;BME280;6154;51.550;12.138;2022-08-03T04:08:41;100530.16;;;20.85;54.86
12182;BME280;6154;51.550;12.138;2022-08-03T04:11:31;100538.66;;;20.80;56.18
12182;BME280;6154;51.550;12.138;2022-08-03T04:14:05;100528.03;;;20.79;56.03
12182;BME280;6154;51.550;12.138;2022-08-03T04:16:37;100538.50;;;20.82;55.98
12182;BME280;6154;51.550;12.138;2022-08-03T04:19:12;100537.38;;;20.84;55.14
12182;BME280;6154;51.550;12.138;2022-08-03T04:21:51;100542.31;;;20.89;54.90
12182;BME280;6154;51.550;12.138;2022-08-03T04:24:32;100537.47;;;20.92;54.67
12182;BME280;6154;51.550;12.138;2022-08-03T04:27:04;100544.09;;;20.98;54.92
12182;BME280;6154;51.550;12.138;2022-08-03T04:29:34;100540.97;;;21.03;54.68
12182;BME280;6154;51.550;12.138;2022-08-03T04:32:15;100536.69;;;21.10;54.65
12182;BME280;6154;51.550;12.138;2022-08-03T04:34:44;100546.03;;;21.15;54.28
12182;BME280;6154;51.550;12.138;2022-08-03T04:37:18;100548.78;;;21.23;54.10
12182;BME280;6154;51.550;12.138;2022-08-03T04:39:52;100544.53;;;21.31;54.47
12182;BME280;6154;51.550;12.138;2022-08-03T04:42:24;100544.78;;;21.37;54.32
12182;BME280;6154;51.550;12.138;2022-08-03T04:44:53;100547.69;;;21.44;53.67
12182;BME280;6154;51.550;12.138;2022-08-03T04:47:29;100557.56;;;21.53;53.24
12182;BME280;6154;51.550;12.138;2022-08-03T04:49:59;100548.56;;;21.62;53.21
12182;BME280;6154;51.550;12.138;2022-08-03T04:52:27;100552.72;;;21.74;53.27
12182;BME280;6154;51.550;12.138;2022-08-03T04:54:56;100554.50;;;21.84;53.03
12182;BME280;6154;51.550;12.138;2022-08-03T04:57:25;100549.03;;;21.93;53.06
12182;BME280;6154;51.550;12.138;2022-08-03T04:59:53;100549.97;;;22.02;52.93
12182;BME280;6154;51.550;12.138;2022-08-03T05:02:30;100557.16;;;22.11;52.88
12182;BME280;6154;51.550;12.138;2022-08-03T05:04:59;100555.22;;;22.21;52.88
12182;BME280;6154;51.550;12.138;2022-08-03T05:07:27;100555.13;;;22.31;52.76
12182;BME280;6154;51.550;12.138;2022-08-03T05:10:08;100553.00;;;22.43;52.67
12182;BME280;6154;51.550;12.138;2022-08-03T05:12:43;100552.63;;;22.55;53.61
12182;BME280;6154;51.550;12.138;2022-08-03T05:15:12;100558.19;;;22.62;53.20
12182;BME280;6154;51.550;12.138;2022-08-03T05:17:40;100559.94;;;22.71;53.28
12182;BME280;6154;51.550;12.138;2022-08-03T05:20:09;100562.25;;;22.84;52.89
12182;BME280;6154;51.550;12.138;2022-08-03T05:22:38;100560.25;;;22.94;52.63
12182;BME280;6154;51.550;12.138;2022-08-03T05:25:07;100560.16;;;23.04;52.61
12182;BME280;6154;51.550;12.138;2022-08-03T05:27:45;100560.88;;;23.14;52.71
12182;BME280;6154;51.550;12.138;2022-08-03T05:30:13;100562.28;;;23.26;52.46
12182;BME280;6154;51.550;12.138;2022-08-03T05:33:01;100567.38;;;23.37;52.47
12182;BME280;6154;51.550;12.138;2022-08-03T05:35:31;100564.22;;;23.50;52.23
12182;BME280;6154;51.550;12.138;2022-08-03T05:38:20;100560.38;;;23.61;52.00
12182;BME280;6154;51.550;12.138;2022-08-03T05:40:56;100565.47;;;23.72;51.86
12182;BME280;6154;51.550;12.138;2022-08-03T05:43:45;100558.06;;;23.82;51.88
12182;BME280;6154;51.550;12.138;2022-08-03T05:46:14;100562.13;;;23.94;51.55
12182;BME280;6154;51.550;12.138;2022-08-03T05:48:42;100555.37;;;24.06;51.46
12182;BME280;6154;51.550;12.138;2022-08-03T05:51:10;100563.16;;;24.18;51.38
12182;BME280;6154;51.550;12.138;2022-08-03T05:53:39;100556.06;;;24.33;51.06
12182;BME280;6154;51.550;12.138;2022-08-03T05:56:09;100552.88;;;24.46;50.72
12182;BME280;6154;51.550;12.138;2022-08-03T05:58:42;100552.34;;;24.58;50.63
12182;BME280;6154;51.550;12.138;2022-08-03T06:01:10;100556.69;;;24.76;50.36
12182;BME280;6154;51.550;12.138;2022-08-03T06:03:39;100555.47;;;24.86;49.96
12182;BME280;6154;51.550;12.138;2022-08-03T06:06:07;100555.94;;;24.98;49.86
12182;BME280;6154;51.550;12.138;2022-08-03T06:08:35;100564.38;;;25.11;49.64
12182;BME280;6154;51.550;12.138;2022-08-03T06:11:03;100566.19;;;25.27;49.31
12182;BME280;6154;51.550;12.138;2022-08-03T06:13:33;100571.03;;;25.40;49.29
12182;BME280;6154;51.550;12.138;2022-08-03T06:16:01;100565.84;;;25.61;49.10
12182;BME280;6154;51.550;12.138;2022-08-03T06:18:29;100573.91;;;25.77;48.66
12182;BME280;6154;51.550;12.138;2022-08-03T06:20:57;100568.72;;;25.91;48.34
12182;BME280;6154;51.550;12.138;2022-08-03T06:23:43;100569.13;;;26.02;48.13
12182;BME280;6154;51.550;12.138;2022-08-03T06:26:21;100570.91;;;26.18;47.87
12182;BME280;6154;51.550;12.138;2022-08-03T06:28:50;100565.69;;;26.31;47.56
12182;BME280;6154;51.550;12.138;2022-08-03T06:31:21;100574.06;;;26.45;47.40
12182;BME280;6154;51.550;12.138;2022-08-03T06:33:50;100567.34;;;26.55;47.08
12182;BME280;6154;51.550;12.138;2022-08-03T06:36:38;100568.78;;;26.66;46.85
12182;BME280;6154;51.550;12.138;2022-08-03T06:39:06;100564.84;;;26.83;46.76
12182;BME280;6154;51.550;12.138;2022-08-03T06:41:34;100576.03;;;27.03;46.66
12182;BME280;6154;51.550;12.138;2022-08-03T06:44:08;100572.75;;;27.23;46.39
12182;BME280;6154;51.550;12.138;2022-08-03T06:46:36;100568.41;;;27.43;46.10
12182;BME280;6154;51.550;12.138;2022-08-03T06:49:04;100574.72;;;27.65;45.85
12182;BME280;6154;51.550;12.138;2022-08-03T06:51:33;100570.38;;;27.85;45.59
12182;BME280;6154;51.550;12.138;2022-08-03T06:54:21;100565.13;;;28.05;45.29
12182;BME280;6154;51.550;12.138;2022-08-03T06:56:50;100575.34;;;28.24;45.13
12182;BME280;6154;51.550;12.138;2022-08-03T06:59:19;100574.28;;;28.40;45.00
12182;BME280;6154;51.550;12.138;2022-08-03T07:02:07;100569.19;;;28.58;44.71
12182;BME280;6154;51.550;12.138;2022-08-03T07:04:36;100572.87;;;28.79;44.59
12182;BME280;6154;51.550;12.138;2022-08-03T07:07:04;100571.53;;;28.96;44.35
12182;BME280;6154;51.550;12.138;2022-08-03T07:09:32;100570.38;;;29.12;44.02
12182;BME280;6154;51.550;12.138;2022-08-03T07:12:00;100579.69;;;29.31;43.96
12182;BME280;6154;51.550;12.138;2022-08-03T07:14:31;100575.41;;;29.50;43.68
12182;BME280;6154;51.550;12.138;2022-08-03T07:16:59;100579.47;;;29.67;43.19
12182;BME280;6154;51.550;12.138;2022-08-03T07:19:37;100574.22;;;29.85;43.13
12182;BME280;6154;51.550;12.138;2022-08-03T07:22:05;100578.47;;;30.01;42.80
12182;BME280;6154;51.550;12.138;2022-08-03T07:24:34;100572.66;;;30.17;42.61
12182;BME280;6154;51.550;12.138;2022-08-03T07:27:02;100572.00;;;30.35;42.49
12182;BME280;6154;51.550;12.138;2022-08-03T07:29:33;100574.75;;;30.48;42.08
12182;BME280;6154;51.550;12.138;2022-08-03T07:32:02;100576.84;;;30.59;41.61
12182;BME280;6154;51.550;12.138;2022-08-03T07:34:30;100574.34;;;30.71;41.57
12182;BME280;6154;51.550;12.138;2022-08-03T07:36:58;100568.22;;;30.82;41.35
12182;BME280;6154;51.550;12.138;2022-08-03T07:39:26;100571.75;;;30.96;41.05
12182;BME280;6154;51.550;12.138;2022-08-03T07:41:54;100571.06;;;31.14;41.04
12182;BME280;6154;51.550;12.138;2022-08-03T07:44:22;100570.81;;;31.35;40.82
12182;BME280;6154;51.550;12.138;2022-08-03T07:46:52;100569.25;;;31.53;40.52
12182;BME280;6154;51.550;12.138;2022-08-03T07:49:22;100563.50;;;31.67;40.23
12182;BME280;6154;51.550;12.138;2022-08-03T07:51:50;100570.84;;;31.80;40.11
12182;BME280;6154;51.550;12.138;2022-08-03T07:54:32;100565.28;;;31.87;39.85
12182;BME280;6154;51.550;12.138;2022-08-03T07:57:00;100569.03;;;31.99;39.58
12182;BME280;6154;51.550;12.138;2022-08-03T07:59:28;100565.72;;;32.15;39.60
12182;BME280;6154;51.550;12.138;2022-08-03T08:02:18;100561.66;;;32.31;39.24
12182;BME280;6154;51.550;12.138;2022-08-03T08:04:47;100559.63;;;32.45;39.03
12182;BME280;6154;51.550;12.138;2022-08-03T08:07:15;100559.50;;;32.58;38.86
12182;BME280;6154;51.550;12.138;2022-08-03T08:09:46;100556.56;;;32.78;38.60
12182;BME280;6154;51.550;12.138;2022-08-03T08:12:14;100563.44;;;32.87;38.29
12182;BME280;6154;51.550;12.138;2022-08-03T08:14:42;100567.13;;;32.99;38.07
12182;BME280;6154;51.550;12.138;2022-08-03T08:17:12;100560.62;;;33.12;38.08
12182;BME280;6154;51.550;12.138;2022-08-03T08:19:42;100572.16;;;33.21;37.69
12182;BME280;6154;51.550;12.138;2022-08-03T08:22:17;100574.28;;;33.37;37.43
12182;BME280;6154;51.550;12.138;2022-08-03T08:24:57;100566.97;;;33.49;37.47
12182;BME280;6154;51.550;12.138;2022-08-03T08:27:25;100569.28;;;33.64;37.16
12182;BME280;6154;51.550;12.138;2022-08-03T08:30:16;100562.31;;;33.80;37.01
12182;BME280;6154;51.550;12.138;2022-08-03T08:32:45;100564.19;;;33.97;36.22
12182;BME280;6154;51.550;12.138;2022-08-03T08:35:15;100564.56;;;34.13;36.49
12182;BME280;6154;51.550;12.138;2022-08-03T08:37:44;100563.28;;;34.27;36.33
12182;BME280;6154;51.550;12.138;2022-08-03T08:40:19;100555.94;;;34.39;36.34
12182;BME280;6154;51.550;12.138;2022-08-03T08:42:48;100556.88;;;34.56;35.49
12182;BME280;6154;51.550;12.138;2022-08-03T08:45:25;100560.00;;;34.72;35.73
12182;BME280;6154;51.550;12.138;2022-08-03T08:47:54;100560.22;;;34.82;35.84
12182;BME280;6154;51.550;12.138;2022-08-03T08:50:29;100560.72;;;34.91;35.56
12182;BME280;6154;51.550;12.138;2022-08-03T08:53:00;100557.59;;;34.99;35.13
12182;BME280;6154;51.550;12.138;2022-08-03T08:55:30;100565.25;;;35.08;34.75
12182;BME280;6154;51.550;12.138;2022-08-03T08:58:19;100558.91;;;35.08;35.09
12182;BME280;6154;51.550;12.138;2022-08-03T09:00:49;100560.28;;;35.22;35.13
12182;BME280;6154;51.550;12.138;2022-08-03T09:03:17;100556.81;;;35.27;34.62
12182;BME280;6154;51.550;12.138;2022-08-03T09:05:59;100562.09;;;35.28;34.66
12182;BME280;6154;51.550;12.138;2022-08-03T09:08:28;100561.31;;;35.45;33.47
12182;BME280;6154;51.550;12.138;2022-08-03T09:10:57;100560.19;;;35.57;33.98
12182;BME280;6154;51.550;12.138;2022-08-03T09:13:25;100561.84;;;35.70;34.17
12182;BME280;6154;51.550;12.138;2022-08-03T09:16:09;100554.34;;;35.82;34.03
12182;BME280;6154;51.550;12.138;2022-08-03T09:18:38;100560.38;;;35.96;30.23
12182;BME280;6154;51.550;12.138;2022-08-03T09:21:20;100555.06;;;36.06;33.81
12182;BME280;6154;51.550;12.138;2022-08-03T09:23:59;100553.81;;;36.14;30.39
12182;BME280;6154;51.550;12.138;2022-08-03T09:26:32;100548.56;;;36.12;33.16
12182;BME280;6154;51.550;12.138;2022-08-03T09:29:03;100549.56;;;36.23;33.24
12182;BME280;6154;51.550;12.138;2022-08-03T09:31:41;100546.13;;;36.33;33.08
12182;BME280;6154;51.550;12.138;2022-08-03T09:34:12;100546.00;;;36.39;33.39
12182;BME280;6154;51.550;12.138;2022-08-03T09:36:43;100548.31;;;36.47;33.15
12182;BME280;6154;51.550;12.138;2022-08-03T09:39:14;100539.13;;;36.59;31.79
12182;BME280;6154;51.550;12.138;2022-08-03T09:41:44;100547.28;;;36.70;32.68
12182;BME280;6154;51.550;12.138;2022-08-03T09:44:13;100541.00;;;36.75;32.45
12182;BME280;6154;51.550;12.138;2022-08-03T09:46:53;100548.34;;;36.86;32.58
12182;BME280;6154;51.550;12.138;2022-08-03T09:49:22;100535.22;;;36.93;32.18
12182;BME280;6154;51.550;12.138;2022-08-03T09:51:52;100540.16;;;36.91;32.15
12182;BME280;6154;51.550;12.138;2022-08-03T09:54:41;100542.28;;;37.06;31.92
12182;BME280;6154;51.550;12.138;2022-08-03T09:57:19;100530.78;;;36.75;30.72
12182;BME280;6154;51.550;12.138;2022-08-03T09:59:49;100533.59;;;36.97;29.29
12182;BME280;6154;51.550;12.138;2022-08-03T10:02:39;100529.69;;;37.15;32.24
12182;BME280;6154;51.550;12.138;2022-08-03T10:05:09;100546.78;;;37.34;32.01
12182;BME280;6154;51.550;12.138;2022-08-03T10:07:48;100539.25;;;37.51;31.42
12182;BME280;6154;51.550;12.138;2022-08-03T10:10:16;100520.66;;;37.68;31.01
12182;BME280;6154;51.550;12.138;2022-08-03T10:12:58;100526.66;;;37.87;31.25
12182;BME280;6154;51.550;12.138;2022-08-03T10:15:27;100521.47;;;37.96;31.29
12182;BME280;6154;51.550;12.138;2022-08-03T10:18:15;100522.09;;;38.03;31.32
12182;BME280;6154;51.550;12.138;2022-08-03T10:20:48;100517.78;;;38.17;31.35
12182;BME280;6154;51.550;12.138;2022-08-03T10:23:18;100507.34;;;38.24;30.84
12182;BME280;6154;51.550;12.138;2022-08-03T10:25:52;100515.47;;;38.36;31.00
12182;BME280;6154;51.550;12.138;2022-08-03T10:28:22;100505.81;;;38.44;29.46
12182;BME280;6154;51.550;12.138;2022-08-03T10:30:52;100508.66;;;38.54;30.09
12182;BME280;6154;51.550;12.138;2022-08-03T10:33:23;100505.56;;;38.45;30.71
12182;BME280;6154;51.550;12.138;2022-08-03T10:36:14;100500.28;;;38.39;30.78
12182;BME280;6154;51.550;12.138;2022-08-03T10:38:47;100502.00;;;38.50;30.84
12182;BME280;6154;51.550;12.138;2022-08-03T10:41:19;100494.59;;;38.66;29.49
12182;BME280;6154;51.550;12.138;2022-08-03T10:43:50;100499.94;;;38.77;30.59
12182;BME280;6154;51.550;12.138;2022-08-03T10:46:20;100493.63;;;38.87;29.94
12182;BME280;6154;51.550;12.138;2022-08-03T10:48:49;100496.16;;;38.89;29.96
12182;BME280;6154;51.550;12.138;2022-08-03T10:51:18;100485.34;;;38.97;30.14
12182;BME280;6154;51.550;12.138;2022-08-03T10:53:48;100493.44;;;39.04;30.05
12182;BME280;6154;51.550;12.138;2022-08-03T10:56:37;100492.62;;;39.08;29.82
12182;BME280;6154;51.550;12.138;2022-08-03T10:59:56;100487.13;;;39.14;27.22
12182;BME280;6154;51.550;12.138;2022-08-03T11:03:00;100487.94;;;39.14;26.36
12182;BME280;6154;51.550;12.138;2022-08-03T11:05:30;100484.16;;;38.73;24.34
12182;BME280;6154;51.550;12.138;2022-08-03T11:08:23;100478.78;;;38.56;29.52
12182;BME280;6154;51.550;12.138;2022-08-03T11:10:56;100486.22;;;38.50;26.51
12182;BME280;6154;51.550;12.138;2022-08-03T11:13:26;100487.13;;;38.66;29.26
12182;BME280;6154;51.550;12.138;2022-08-03T11:15:59;100491.69;;;38.83;29.41
12182;BME280;6154;51.550;12.138;2022-08-03T11:18:32;100485.91;;;38.89;28.65
12182;BME280;6154;51.550;12.138;2022-08-03T11:21:01;100485.59;;;38.80;29.22
12182;BME280;6154;51.550;12.138;2022-08-03T11:23:41;100480.94;;;38.91;29.34
12182;BME280;6154;51.550;12.138;2022-08-03T11:26:32;100485.13;;;39.04;25.57
12182;BME280;6154;51.550;12.138;2022-08-03T11:29:25;100483.22;;;39.09;28.94
12182;BME280;6154;51.550;12.138;2022-08-03T11:31:54;100483.97;;;38.90;23.02
12182;BME280;6154;51.550;12.138;2022-08-03T11:34:22;100480.94;;;38.91;28.89
12182;BME280;6154;51.550;12.138;2022-08-03T11:37:19;100473.91;;;38.73;28.02
12182;BME280;6154;51.550;12.138;2022-08-03T11:39:51;100475.31;;;38.71;24.04
12182;BME280;6154;51.550;12.138;2022-08-03T11:42:43;100474.00;;;38.89;28.19
12182;BME280;6154;51.550;12.138;2022-08-03T11:45:14;100467.94;;;39.07;26.22
12182;BME280;6154;51.550;12.138;2022-08-03T11:47:45;100472.94;;;39.00;27.93
12182;BME280;6154;51.550;12.138;2022-08-03T11:50:18;100466.59;;;39.09;28.19
12182;BME280;6154;51.550;12.138;2022-08-03T11:52:47;100466.06;;;39.18;28.17
12182;BME280;6154;51.550;12.138;2022-08-03T11:55:17;100469.94;;;39.12;28.01
12182;BME280;6154;51.550;12.138;2022-08-03T11:57:51;100468.00;;;39.12;27.68
12182;BME280;6154;51.550;12.138;2022-08-03T12:00:39;100462.12;;;39.03;27.81
12182;BME280;6154;51.550;12.138;2022-08-03T12:03:10;100463.59;;;39.21;27.96
12182;BME280;6154;51.550;12.138;2022-08-03T12:05:44;100464.72;;;39.25;26.91
12182;BME280;6154;51.550;12.138;2022-08-03T12:08:30;100465.09;;;38.87;24.06
12182;BME280;6154;51.550;12.138;2022-08-03T12:11:00;100458.78;;;38.91;23.62
12182;BME280;6154;51.550;12.138;2022-08-03T12:13:37;100458.78;;;38.91;27.11
12182;BME280;6154;51.550;12.138;2022-08-03T12:16:25;100445.75;;;38.97;23.73
12182;BME280;6154;51.550;12.138;2022-08-03T12:18:56;100447.78;;;39.17;26.59
12182;BME280;6154;51.550;12.138;2022-08-03T12:21:24;100438.94;;;39.25;26.94
12182;BME280;6154;51.550;12.138;2022-08-03T12:23:56;100438.66;;;39.26;26.79
12182;BME280;6154;51.550;12.138;2022-08-03T12:26:27;100430.94;;;39.44;26.20
12182;BME280;6154;51.550;12.138;2022-08-03T12:28:57;100430.44;;;39.62;26.83
12182;BME280;6154;51.550;12.138;2022-08-03T12:31:25;100434.84;;;39.68;26.30
12182;BME280;6154;51.550;12.138;2022-08-03T12:33:54;100429.87;;;39.75;26.68
12182;BME280;6154;51.550;12.138;2022-08-03T12:36:25;100428.47;;;39.78;26.45
12182;BME280;6154;51.550;12.138;2022-08-03T12:38:55;100424.31;;;39.85;26.65
12182;BME280;6154;51.550;12.138;2022-08-03T12:41:29;100423.22;;;39.81;26.61
12182;BME280;6154;51.550;12.138;2022-08-03T12:43:59;100427.09;;;39.80;26.00
12182;BME280;6154;51.550;12.138;2022-08-03T12:46:30;100423.75;;;39.88;26.69
12182;BME280;6154;51.550;12.138;2022-08-03T12:49:07;100414.91;;;39.81;25.87
12182;BME280;6154;51.550;12.138;2022-08-03T12:51:37;100408.81;;;39.74;23.68
12182;BME280;6154;51.550;12.138;2022-08-03T12:54:08;100418.22;;;39.68;26.39
12182;BME280;6154;51.550;12.138;2022-08-03T12:56:57;100418.47;;;39.51;26.35
12182;BME280;6154;51.550;12.138;2022-08-03T12:59:28;100414.38;;;39.59;23.57
12182;BME280;6154;51.550;12.138;2022-08-03T13:02:13;100411.56;;;39.74;25.98
12182;BME280;6154;51.550;12.138;2022-08-03T13:04:45;100399.34;;;39.85;23.78
12182;BME280;6154;51.550;12.138;2022-08-03T13:07:15;100402.16;;;40.01;25.70
12182;BME280;6154;51.550;12.138;2022-08-03T13:09:47;100407.41;;;40.12;25.84
12182;BME280;6154;51.550;12.138;2022-08-03T13:12:17;100403.72;;;40.27;26.00
12182;BME280;6154;51.550;12.138;2022-08-03T13:14:49;100401.78;;;40.43;25.90
12182;BME280;6154;51.550;12.138;2022-08-03T13:17:18;100394.78;;;40.56;25.36
12182;BME280;6154;51.550;12.138;2022-08-03T13:19:48;100393.63;;;40.67;25.73
12182;BME280;6154;51.550;12.138;2022-08-03T13:22:17;100395.22;;;40.78;25.55